Time;durP1;ratioP1;P1;durP2;ratioP2;P2;SDS_P1;SDS_P2;PMS_P1;PMS_P2;Temp;Humidity;BMP_temperature;BMP_pressure;BME280_temperature;BME280_humidity;BME280_pressure;Samples;Min_cycle;Max_cycle;Signal;HPM_P1;HPM_P2
2023/03/09 00:24:09;;;;;;;784.53;709.53;;;3.20;99.90;;;;;;6213266;23;20727;-89
2023/03/09 00:26:51;;;;;;;781.87;701.47;;;3.10;99.90;;;;;;6223516;23;20401;-88
2023/03/09 00:29:18;;;;;;;786.00;708.37;;;3.20;99.90;;;;;;6213352;23;21022;-88
2023/03/09 00:31:45;;;;;;;795.83;714.27;;;3.00;99.90;;;;;;6213180;23;20435;-88
2023/03/09 00:34:15;;;;;;;794.80;715.63;;;3.10;99.90;;;;;;6213129;23;20983;-89
2023/03/09 00:36:43;;;;;;;810.67;730.07;;;3.20;99.90;;;;;;6213226;23;20408;-88
2023/03/09 00:39:16;;;;;;;804.23;718.37;;;3.10;99.90;;;;;;6213228;23;20443;-88
2023/03/09 00:41:44;;;;;;;806.53;720.23;;;3.10;99.90;;;;;;6186330;23;20447;-88
2023/03/09 00:44:13;;;;;;;804.20;716.57;;;3.20;99.90;;;;;;6212806;23;20467;-89
2023/03/09 00:46:40;;;;;;;789.60;701.47;;;3.10;99.90;;;;;;6213274;23;20470;-88
2023/03/09 00:49:07;;;;;;;778.80;695.00;;;3.30;99.90;;;;;;6213138;23;20514;-88
2023/03/09 00:51:42;;;;;;;786.13;703.63;;;3.30;99.90;;;;;;6186255;23;20446;-87
2023/03/09 00:54:13;;;;;;;768.37;691.97;;;3.20;99.90;;;;;;6223071;23;20471;-87
2023/03/09 00:56:41;;;;;;;768.43;693.40;;;3.10;99.90;;;;;;6213264;23;20427;-87
2023/03/09 00:59:08;;;;;;;749.73;678.40;;;3.20;99.90;;;;;;6212674;23;20825;-87
2023/03/09 01:01:35;;;;;;;743.63;674.67;;;3.10;99.90;;;;;;6212878;23;20408;-87
2023/03/09 01:04:03;;;;;;;755.07;686.23;;;2.90;99.90;;;;;;6222617;23;20924;-88
2023/03/09 01:06:33;;;;;;;765.90;696.53;;;3.10;99.90;;;;;;6212799;23;20498;-87
2023/03/09 01:09:04;;;;;;;771.47;698.00;;;3.00;99.90;;;;;;6213819;23;20404;-87
2023/03/09 01:11:34;;;;;;;769.97;696.33;;;2.90;99.90;;;;;;6213251;23;20494;-86
2023/03/09 01:14:02;;;;;;;771.63;697.27;;;2.90;99.90;;;;;;6215934;23;20452;-86
2023/03/09 01:16:37;;;;;;;770.37;692.43;;;2.70;99.90;;;;;;6215378;23;20977;-86
2023/03/09 01:19:04;;;;;;;776.60;697.27;;;2.90;99.90;;;;;;6216174;23;20395;-86
2023/03/09 01:21:32;;;;;;;775.03;698.83;;;2.80;99.90;;;;;;6225053;23;20408;-86
2023/03/09 01:23:59;;;;;;;780.53;705.20;;;2.70;99.90;;;;;;6164897;23;20447;-85
2023/03/09 01:26:26;;;;;;;786.47;709.67;;;2.80;99.90;;;;;;6215137;23;20443;-85
2023/03/09 01:28:54;;;;;;;776.43;700.37;;;2.90;99.90;;;;;;6189100;23;20928;-85
2023/03/09 01:31:21;;;;;;;777.60;701.93;;;2.70;99.90;;;;;;6214986;23;20951;-85
2023/03/09 01:33:49;;;;;;;785.17;705.30;;;2.60;99.90;;;;;;6215606;23;20440;-86
2023/03/09 01:36:19;;;;;;;784.60;708.60;;;2.70;99.90;;;;;;6215182;23;20489;-85
2023/03/09 01:38:46;;;;;;;762.40;692.13;;;2.80;99.90;;;;;;6215126;23;20495;-85
2023/03/09 01:41:15;;;;;;;767.60;698.90;;;2.70;99.90;;;;;;6214869;23;20444;-85
2023/03/09 01:43:43;;;;;;;765.53;697.03;;;2.60;99.90;;;;;;6215696;23;20450;-85
2023/03/09 01:46:36;;;;;;;771.57;702.10;;;2.70;99.90;;;;;;6213951;23;20435;-85
2023/03/09 01:49:36;;;;;;;758.73;693.63;;;2.80;99.90;;;;;;6215430;23;20400;-85
2023/03/09 01:52:13;;;;;;;771.97;706.77;;;2.60;99.90;;;;;;6188696;23;20438;-85
2023/03/09 01:54:46;;;;;;;761.10;701.40;;;2.60;99.90;;;;;;6214997;23;20518;-85
2023/03/09 01:57:20;;;;;;;767.37;707.77;;;2.60;99.90;;;;;;6215877;23;20873;-85
2023/03/09 01:59:51;;;;;;;770.87;708.47;;;2.60;99.90;;;;;;6214470;23;20418;-84
2023/03/09 02:02:26;;;;;;;770.57;708.40;;;2.50;99.90;;;;;;6215119;23;20479;-85
2023/03/09 02:04:57;;;;;;;784.13;723.63;;;2.60;99.90;;;;;;6215039;23;20997;-85
2023/03/09 02:07:44;;;;;;;768.47;711.20;;;2.50;99.90;;;;;;6215076;23;20396;-85
2023/03/09 02:10:19;;;;;;;766.20;709.63;;;2.60;99.90;;;;;;6214622;23;20507;-85
2023/03/09 02:12:52;;;;;;;780.03;723.27;;;2.50;99.90;;;;;;6215030;23;20420;-84
2023/03/09 02:15:20;;;;;;;788.50;728.70;;;2.50;99.90;;;;;;6215329;23;20439;-84
2023/03/09 02:17:49;;;;;;;785.67;724.17;;;2.60;99.90;;;;;;6188490;23;20416;-85
2023/03/09 02:20:25;;;;;;;783.93;718.23;;;2.50;99.90;;;;;;6214681;23;20904;-85
2023/03/09 02:22:54;;;;;;;773.40;713.60;;;2.50;99.90;;;;;;6214725;23;20419;-84
2023/03/09 02:25:28;;;;;;;782.00;718.60;;;2.60;99.90;;;;;;6214980;23;20438;-85
2023/03/09 02:27:59;;;;;;;795.40;727.27;;;2.60;99.90;;;;;;6188157;23;20415;-86
2023/03/09 02:30:31;;;;;;;794.83;725.73;;;2.50;99.90;;;;;;6214391;23;20417;-85
2023/03/09 02:33:05;;;;;;;795.77;725.17;;;2.40;99.90;;;;;;6215358;23;20456;-85
2023/03/09 02:35:32;;;;;;;796.23;725.43;;;2.40;99.90;;;;;;6214843;23;20490;-85
2023/03/09 02:38:00;;;;;;;785.90;716.40;;;2.60;99.90;;;;;;6215224;23;20412;-84
2023/03/09 02:40:32;;;;;;;790.53;720.33;;;2.40;99.90;;;;;;6212975;23;20416;-85
2023/03/09 02:43:03;;;;;;;800.80;725.50;;;2.50;99.90;;;;;;6215265;23;20475;-85
2023/03/09 02:45:37;;;;;;;790.03;716.37;;;2.30;99.90;;;;;;6214795;23;20432;-85
2023/03/09 02:48:06;;;;;;;786.57;713.27;;;2.50;99.90;;;;;;6215090;23;20455;-85
2023/03/09 02:50:33;;;;;;;788.23;713.43;;;2.40;99.90;;;;;;6214947;23;20439;-85
2023/03/09 02:53:01;;;;;;;788.73;713.03;;;2.40;99.90;;;;;;6214892;23;20438;-85
2023/03/09 02:55:28;;;;;;;772.10;697.13;;;2.40;99.90;;;;;;6214567;23;20436;-84
2023/03/09 02:57:55;;;;;;;778.17;702.97;;;2.50;99.90;;;;;;6213878;23;20423;-85
2023/03/09 03:00:26;;;;;;;780.53;706.97;;;2.50;99.90;;;;;;6214869;23;20798;-84
2023/03/09 03:02:53;;;;;;;796.33;715.83;;;2.50;99.90;;;;;;6214931;23;20400;-85
2023/03/09 03:05:20;;;;;;;785.27;704.83;;;2.40;99.90;;;;;;6214364;23;20460;-84
2023/03/09 03:07:47;;;;;;;797.40;714.20;;;2.30;99.90;;;;;;6215012;23;20413;-85
2023/03/09 03:10:17;;;;;;;779.23;698.00;;;2.30;99.90;;;;;;6212590;23;20503;-85
2023/03/09 03:12:44;;;;;;;802.70;721.43;;;2.30;99.90;;;;;;6214541;23;20438;-84
2023/03/09 03:15:12;;;;;;;790.13;707.57;;;2.40;99.90;;;;;;6187605;23;20450;-85
2023/03/09 03:17:40;;;;;;;793.63;710.00;;;2.20;99.90;;;;;;6214211;23;20418;-85
2023/03/09 03:20:12;;;;;;;771.67;690.97;;;2.30;99.90;;;;;;6213361;23;20412;-84
2023/03/09 03:22:39;;;;;;;792.07;708.60;;;2.40;99.90;;;;;;6214331;23;20452;-84
2023/03/09 03:25:07;;;;;;;801.40;713.70;;;2.20;99.90;;;;;;6214236;23;20425;-84
2023/03/09 03:27:34;;;;;;;784.97;703.00;;;2.50;99.90;;;;;;6213904;23;20416;-85
2023/03/09 03:30:02;;;;;;;786.73;705.70;;;2.50;99.90;;;;;;6214022;23;20418;-84
2023/03/09 03:32:29;;;;;;;793.00;705.67;;;2.30;99.90;;;;;;6214549;23;20432;-84
2023/03/09 03:34:58;;;;;;;791.53;705.07;;;2.40;99.90;;;;;;6214086;23;20598;-85
2023/03/09 03:37:25;;;;;;;801.10;701.70;;;2.40;99.90;;;;;;6224409;23;20972;-85
2023/03/09 03:39:53;;;;;;;797.57;694.60;;;2.50;99.90;;;;;;6214138;23;20412;-84
2023/03/09 03:42:20;;;;;;;801.00;697.60;;;2.50;99.90;;;;;;6187739;23;20412;-85
2023/03/09 03:44:47;;;;;;;806.03;702.17;;;2.50;99.90;;;;;;6214202;23;20987;-85
2023/03/09 03:47:14;;;;;;;785.37;693.70;;;2.40;99.90;;;;;;6214040;23;20412;-84
2023/03/09 03:49:44;;;;;;;829.60;704.27;;;2.40;99.90;;;;;;6213806;23;21150;-85
2023/03/09 03:52:12;;;;;;;822.53;711.53;;;2.50;99.90;;;;;;6213401;23;20436;-85
2023/03/09 03:54:40;;;;;;;832.03;712.60;;;2.40;99.90;;;;;;6162779;23;20436;-85
2023/03/09 03:57:08;;;;;;;852.30;707.17;;;2.50;99.90;;;;;;6187539;23;20416;-84
2023/03/09 03:59:35;;;;;;;825.70;710.47;;;2.40;99.90;;;;;;6223780;23;20420;-85
2023/03/09 04:02:02;;;;;;;859.90;706.17;;;2.40;99.90;;;;;;6214161;23;20408;-85
2023/03/09 04:04:30;;;;;;;832.63;713.80;;;2.40;99.90;;;;;;6213810;23;20443;-84
2023/03/09 04:06:57;;;;;;;893.13;716.43;;;2.40;99.90;;;;;;6187371;23;21094;-89
2023/03/09 04:09:26;;;;;;;909.50;720.20;;;2.50;99.90;;;;;;6212764;23;20495;-85
2023/03/09 04:11:53;;;;;;;835.93;712.60;;;2.20;99.90;;;;;;6214198;23;20440;-86
2023/03/09 04:14:28;;;;;;;912.60;730.27;;;2.30;99.90;;;;;;6214009;23;20440;-85
2023/03/09 04:16:56;;;;;;;896.03;702.97;;;2.40;99.90;;;;;;6214038;23;20396;-86
2023/03/09 04:19:24;;;;;;;925.97;704.23;;;2.30;99.90;;;;;;6186497;23;20412;-85
2023/03/09 04:21:52;;;;;;;903.97;706.17;;;2.40;99.90;;;;;;6213166;23;20408;-85
2023/03/09 04:24:19;;;;;;;884.17;701.80;;;2.40;99.90;;;;;;6212525;23;21031;-85
2023/03/09 04:26:48;;;;;;;872.93;700.27;;;2.50;99.90;;;;;;6186451;23;20427;-85
2023/03/09 04:29:17;;;;;;;950.70;695.80;;;2.30;99.90;;;;;;6213533;23;20440;-85
2023/03/09 04:31:44;;;;;;;940.33;697.67;;;2.50;99.90;;;;;;6213596;23;20495;-85
2023/03/09 04:34:13;;;;;;;874.13;701.20;;;2.30;99.90;;;;;;6212873;23;20466;-85
2023/03/09 04:36:40;;;;;;;913.83;697.83;;;2.50;99.90;;;;;;6213431;23;20412;-85
2023/03/09 04:39:07;;;;;;;885.60;718.27;;;2.30;99.90;;;;;;6212743;23;20418;-85
2023/03/09 04:41:38;;;;;;;888.97;699.00;;;2.30;99.90;;;;;;6212630;23;20412;-85
2023/03/09 04:49:18;;;;;;;838.10;694.77;;;2.30;99.90;;;;;;6257341;22;20429;-85
2023/03/09 04:51:45;;;;;;;874.20;700.13;;;2.40;99.90;;;;;;6253406;23;20387;-85
2023/03/09 04:59:29;;;;;;;832.10;691.40;;;2.20;99.90;;;;;;6243328;22;20502;-83
2023/03/09 05:02:02;;;;;;;766.20;681.30;;;2.30;99.90;;;;;;6243771;23;20391;-88
2023/03/09 05:04:30;;;;;;;766.53;687.70;;;2.40;99.90;;;;;;6234558;22;20444;-85
2023/03/09 05:07:04;;;;;;;768.00;691.07;;;2.40;99.90;;;;;;6243629;23;20419;-85
2023/03/09 05:09:31;;;;;;;786.00;704.70;;;2.60;99.90;;;;;;6241965;22;20407;-85
2023/03/09 05:12:00;;;;;;;785.57;700.80;;;2.40;99.90;;;;;;6243548;23;20489;-87
2023/03/09 05:14:27;;;;;;;786.63;690.07;;;2.30;99.90;;;;;;6242806;23;20466;-85
2023/03/09 05:16:56;;;;;;;796.30;710.80;;;2.40;99.90;;;;;;6242224;22;20446;-85
2023/03/09 05:19:23;;;;;;;784.37;699.63;;;2.40;99.90;;;;;;6242860;23;20477;-85
2023/03/09 05:21:56;;;;;;;811.97;723.60;;;2.30;99.90;;;;;;6243059;23;20514;-85
2023/03/09 05:24:22;;;;;;;804.53;714.57;;;2.40;99.90;;;;;;6243240;23;20501;-85
2023/03/09 05:26:52;;;;;;;811.83;716.60;;;2.40;99.90;;;;;;6242614;22;20970;-86
2023/03/09 05:29:21;;;;;;;808.33;710.47;;;2.30;99.90;;;;;;6242960;22;20419;-84
2023/03/09 05:31:48;;;;;;;801.47;714.03;;;2.40;99.90;;;;;;6240869;23;20502;-87
2023/03/09 05:34:17;;;;;;;813.33;723.63;;;2.50;99.90;;;;;;6242930;23;20967;-87
2023/03/09 05:36:46;;;;;;;799.60;714.70;;;2.40;99.90;;;;;;6242912;23;20499;-87
2023/03/09 05:39:15;;;;;;;811.80;725.13;;;2.40;99.90;;;;;;6253204;23;20811;-87
2023/03/09 05:41:44;;;;;;;808.27;721.23;;;2.50;99.90;;;;;;6252655;23;20439;-87
2023/03/09 05:44:11;;;;;;;815.00;726.60;;;2.30;99.90;;;;;;6252735;23;20411;-87
2023/03/09 05:46:39;;;;;;;807.57;724.20;;;2.30;99.90;;;;;;6253594;23;20473;-88
2023/03/09 05:49:12;;;;;;;812.00;729.10;;;2.40;99.90;;;;;;6251895;22;20816;-87
2023/03/09 05:51:42;;;;;;;809.63;724.83;;;2.20;99.90;;;;;;6253460;23;20415;-89
2023/03/09 05:54:09;;;;;;;823.17;742.40;;;2.20;99.90;;;;;;6253059;23;20434;-87
2023/03/09 05:56:38;;;;;;;815.93;732.93;;;2.30;99.90;;;;;;6253079;23;20403;-85
2023/03/09 05:59:05;;;;;;;806.17;725.57;;;2.20;99.90;;;;;;6254004;23;20407;-85
2023/03/09 06:01:32;;;;;;;800.33;722.40;;;2.30;99.90;;;;;;6253952;23;20415;-84
2023/03/09 06:03:59;;;;;;;785.70;710.67;;;2.30;99.90;;;;;;6255147;23;20411;-84
2023/03/09 06:06:26;;;;;;;792.57;718.30;;;2.50;99.90;;;;;;6254856;22;20434;-84
2023/03/09 06:08:53;;;;;;;795.60;725.80;;;2.30;99.90;;;;;;6254557;23;20480;-84
2023/03/09 06:11:21;;;;;;;782.90;715.23;;;2.30;99.90;;;;;;6253832;22;20414;-84
2023/03/09 06:13:52;;;;;;;797.30;725.67;;;2.40;99.90;;;;;;6254556;23;20811;-83
2023/03/09 06:16:19;;;;;;;789.43;719.20;;;2.20;99.90;;;;;;6254896;23;20455;-83
2023/03/09 06:18:46;;;;;;;782.03;714.40;;;2.30;99.90;;;;;;6254574;23;20914;-84
2023/03/09 06:26:29;;;;;;;771.57;708.03;;;2.40;99.90;;;;;;6198503;22;20440;-93
2023/03/09 06:36:52;;;;;;;778.00;712.50;;;2.30;99.90;;;;;;6209853;22;20444;-90
2023/03/09 06:39:19;;;;;;;755.00;693.70;;;2.50;99.90;;;;;;6220165;23;20466;-88
2023/03/09 06:44:25;;;;;;;773.77;707.37;;;2.60;99.90;;;;;;6193431;23;20523;-88
2023/03/09 06:46:58;;;;;;;762.87;696.87;;;2.30;99.90;;;;;;6186202;23;20496;-86
2023/03/09 06:49:28;;;;;;;772.23;705.97;;;2.40;99.90;;;;;;6196559;23;20413;-90
2023/03/09 07:05:10;;;;;;;748.13;692.87;;;2.40;99.90;;;;;;5078915;27;20584;-86
2023/03/09 07:07:48;;;;;;;744.40;685.40;;;2.70;99.90;;;;;;5069132;28;20545;-88
2023/03/09 07:10:19;;;;;;;754.47;691.30;;;2.70;99.90;;;;;;5068412;28;20455;-92
2023/03/09 07:12:56;;;;;;;769.33;703.67;;;2.90;99.90;;;;;;5069335;28;20481;-91
2023/03/09 07:15:28;;;;;;;778.93;709.87;;;3.10;99.90;;;;;;5070093;28;20524;-89
2023/03/09 07:18:04;;;;;;;781.83;711.10;;;3.20;99.90;;;;;;5067183;28;20448;-90
2023/03/09 07:39:26;;;;;;;790.83;719.03;;;4.00;99.90;;;;;;3332954;26;20477;-90
2023/03/09 07:44:37;;;;;;;783.87;711.83;;;4.00;99.90;;;;;;5384677;22;20513;-90
2023/03/09 07:47:09;;;;;;;786.73;715.30;;;4.00;99.90;;;;;;5006730;28;20454;-89
2023/03/09 07:49:41;;;;;;;779.03;708.83;;;4.00;99.90;;;;;;4997028;28;20461;-88
2023/03/09 07:55:24;;;;;;;796.57;725.63;;;4.20;99.90;;;;;;5051477;23;20488;-87
2023/03/09 08:03:08;;;;;;;790.50;723.63;;;4.10;99.90;;;;;;5393700;22;20440;-96
2023/03/09 08:05:55;;;;;;;801.40;735.77;;;4.30;99.90;;;;;;5022290;28;20499;-95
2023/03/09 08:08:32;;;;;;;796.17;729.97;;;4.20;99.90;;;;;;5020459;28;20438;-94
2023/03/09 08:29:18;;;;;;;781.33;722.53;;;4.90;99.90;;;;;;5255190;22;20911;-87
2023/03/09 08:37:00;;;;;;;741.40;693.10;;;4.70;99.90;;;;;;5510933;22;20555;-87
2023/03/09 08:42:05;;;;;;;725.13;679.00;;;4.90;99.90;;;;;;5755780;22;20592;-86
2023/03/09 08:44:42;;;;;;;715.23;670.40;;;5.00;99.90;;;;;;5014201;28;20838;-87
2023/03/09 12:22:05;;;;;;;472.53;449.90;;;6.60;99.90;;;;;;4847060;22;20225;-82
2023/03/09 12:24:38;;;;;;;464.90;441.70;;;6.90;99.90;;;;;;5014024;28;20610;-83
2023/03/09 12:27:16;;;;;;;424.73;404.63;;;6.90;99.90;;;;;;4997181;28;20471;-82
2023/03/09 12:29:47;;;;;;;427.27;406.63;;;7.00;99.90;;;;;;5010100;28;20514;-83
2023/03/09 12:32:43;;;;;;;466.83;444.73;;;7.10;99.90;;;;;;5012846;28;20445;-82
2023/03/09 12:35:42;;;;;;;463.23;439.83;;;7.20;99.90;;;;;;5012842;28;20919;-83
2023/03/09 12:38:30;;;;;;;437.03;415.73;;;7.30;99.90;;;;;;4978678;28;20503;-83
2023/03/09 12:41:03;;;;;;;451.80;429.67;;;7.30;99.90;;;;;;5013530;28;20958;-84
2023/03/09 12:43:54;;;;;;;476.47;452.83;;;7.50;99.90;;;;;;5013906;28;21031;-84
2023/03/09 12:47:01;;;;;;;380.00;361.80;;;7.60;99.90;;;;;;5013615;28;20515;-84
2023/03/09 12:49:35;;;;;;;418.53;398.63;;;7.50;99.90;;;;;;5013637;28;20445;-84
2023/03/09 12:52:33;;;;;;;376.60;359.07;;;7.60;99.90;;;;;;5013768;28;20457;-83
2023/03/09 12:55:22;;;;;;;478.57;455.50;;;7.40;99.90;;;;;;5012735;28;20488;-84
2023/03/09 12:58:09;;;;;;;516.33;491.23;;;7.40;99.90;;;;;;5012820;28;20922;-84
2023/03/09 13:00:37;;;;;;;540.70;513.83;;;7.30;99.90;;;;;;5011969;28;20461;-84
2023/03/09 13:03:14;;;;;;;570.93;541.30;;;7.20;99.90;;;;;;5012789;28;20545;-84
2023/03/09 13:05:45;;;;;;;594.97;563.10;;;7.20;99.90;;;;;;5012230;28;21058;-84
2023/03/09 13:08:30;;;;;;;637.53;602.93;;;7.30;99.90;;;;;;5010792;28;20485;-84
2023/03/09 13:11:31;;;;;;;683.97;643.20;;;7.30;99.90;;;;;;5010976;28;20488;-84
2023/03/09 13:13:59;;;;;;;731.43;683.13;;;7.50;99.90;;;;;;4993573;28;20496;-84
2023/03/09 13:16:51;;;;;;;691.77;647.50;;;7.90;99.90;;;;;;4993373;28;20509;-84
2023/03/09 13:19:41;;;;;;;646.93;608.17;;;7.90;99.90;;;;;;4993245;28;20457;-84
2023/03/09 13:22:22;;;;;;;572.20;542.57;;;7.90;99.90;;;;;;4993073;28;20850;-84
2023/03/09 13:24:51;;;;;;;542.33;515.33;;;7.70;99.90;;;;;;4992816;28;20474;-83
2023/03/09 13:27:24;;;;;;;630.07;595.93;;;7.60;99.90;;;;;;4992500;28;20974;-83
2023/03/09 13:29:54;;;;;;;635.40;601.40;;;7.40;99.90;;;;;;4992936;28;20545;-83
2023/03/09 13:32:27;;;;;;;654.77;618.87;;;7.40;99.90;;;;;;4992833;28;20537;-83
2023/03/09 13:34:57;;;;;;;661.13;623.70;;;7.30;99.90;;;;;;4992538;28;20856;-83
2023/03/09 13:37:28;;;;;;;699.50;657.60;;;7.30;99.90;;;;;;4993132;28;20468;-84
2023/03/09 13:40:00;;;;;;;714.80;669.97;;;7.30;99.90;;;;;;4974973;28;20458;-83
2023/03/09 13:42:31;;;;;;;734.57;686.83;;;7.30;99.90;;;;;;4991964;28;20489;-83
2023/03/09 13:45:00;;;;;;;752.17;702.37;;;7.10;99.90;;;;;;4975396;28;20998;-83
2023/03/09 13:47:29;;;;;;;762.60;710.40;;;7.10;99.90;;;;;;4992776;28;20461;-83
2023/03/09 13:49:58;;;;;;;772.07;716.80;;;7.10;99.90;;;;;;4991605;28;20520;-82
2023/03/09 13:52:26;;;;;;;794.37;736.67;;;7.20;99.90;;;;;;5010485;28;20528;-82
2023/03/09 13:54:55;;;;;;;804.63;744.53;;;7.30;99.90;;;;;;5011092;28;20491;-82
2023/03/09 13:57:24;;;;;;;811.70;750.50;;;7.50;99.90;;;;;;5011849;28;21226;-82
2023/03/09 13:59:57;;;;;;;791.33;731.50;;;7.70;99.90;;;;;;5011633;28;20460;-82
2023/03/09 14:02:26;;;;;;;776.40;719.00;;;7.80;99.90;;;;;;5010382;28;20454;-82
2023/03/09 14:05:07;;;;;;;786.03;728.70;;;7.80;99.90;;;;;;5010354;28;20547;-82
2023/03/09 14:07:38;;;;;;;789.03;733.70;;;7.80;99.90;;;;;;5010364;28;20456;-82
2023/03/09 14:10:09;;;;;;;807.67;754.27;;;7.50;99.90;;;;;;5007016;28;20484;-82
2023/03/09 14:12:39;;;;;;;810.03;758.83;;;7.30;99.90;;;;;;5011727;28;20907;-82
2023/03/09 14:15:16;;;;;;;818.97;765.43;;;7.00;99.90;;;;;;4994202;28;20490;-82
2023/03/09 14:17:43;;;;;;;831.83;770.27;;;7.00;99.90;;;;;;4993891;28;20464;-83
2023/03/09 14:20:18;;;;;;;824.83;762.23;;;6.90;99.90;;;;;;5011757;28;20459;-83
2023/03/09 14:22:45;;;;;;;834.40;768.53;;;7.10;99.90;;;;;;5011030;28;20465;-82
2023/03/09 14:25:39;;;;;;;828.20;759.67;;;7.20;99.90;;;;;;5010303;28;21016;-82
2023/03/09 14:28:24;;;;;;;822.07;752.27;;;7.40;99.90;;;;;;4975622;28;20491;-83
2023/03/09 14:30:54;;;;;;;819.50;749.83;;;7.60;99.90;;;;;;5010188;28;20457;-82
2023/03/09 14:33:27;;;;;;;820.07;751.00;;;7.60;99.90;;;;;;5010146;28;20461;-82
2023/03/09 14:36:17;;;;;;;805.93;738.57;;;7.80;99.90;;;;;;5011561;28;20491;-82
2023/03/09 14:38:57;;;;;;;802.57;736.07;;;7.90;99.90;;;;;;5011548;28;20453;-82
2023/03/09 14:41:26;;;;;;;799.43;734.03;;;8.00;99.90;;;;;;5010458;28;20953;-82
2023/03/09 14:43:54;;;;;;;795.57;731.87;;;8.10;99.90;;;;;;5011711;28;20449;-82
2023/03/09 14:46:24;;;;;;;795.67;732.10;;;8.40;99.90;;;;;;5011019;28;20519;-83
2023/03/09 14:48:54;;;;;;;776.53;715.33;;;8.70;99.90;;;;;;5011100;28;20457;-82
2023/03/09 14:51:25;;;;;;;761.40;702.67;;;8.90;99.90;;;;;;5011739;28;20449;-82
2023/03/09 14:53:55;;;;;;;755.37;699.73;;;9.30;99.90;;;;;;5011682;28;20565;-82
2023/03/09 14:56:23;;;;;;;724.13;673.40;;;9.50;99.90;;;;;;5010053;28;20453;-82
2023/03/09 14:58:49;;;;;;;696.77;650.13;;;9.50;99.90;;;;;;5009834;28;20600;-82
2023/03/09 15:01:18;;;;;;;698.57;653.70;;;9.60;99.90;;;;;;5010643;28;20464;-79
2023/03/09 15:03:47;;;;;;;651.67;615.17;;;9.60;99.90;;;;;;5011256;28;20454;-80
2023/03/09 15:06:14;;;;;;;626.93;592.63;;;9.50;99.90;;;;;;5011323;28;20536;-80
2023/03/09 15:08:41;;;;;;;618.90;586.40;;;9.50;99.90;;;;;;5010748;28;20810;-80
2023/03/09 15:11:09;;;;;;;629.77;596.57;;;9.60;99.90;;;;;;5011308;28;20456;-80
2023/03/09 15:13:38;;;;;;;604.57;573.23;;;9.60;99.90;;;;;;5011384;28;20544;-79
2023/03/09 15:16:06;;;;;;;620.73;587.23;;;9.60;99.90;;;;;;5014975;28;20500;-80
2023/03/09 15:18:33;;;;;;;650.47;614.57;;;9.70;99.90;;;;;;5015402;28;20453;-80
2023/03/09 15:21:02;;;;;;;646.33;610.73;;;9.70;99.90;;;;;;5015212;28;20535;-80
2023/03/09 15:23:31;;;;;;;656.53;620.53;;;9.70;99.90;;;;;;5015173;28;20980;-80
2023/03/09 15:25:58;;;;;;;655.60;619.47;;;9.50;99.90;;;;;;5014923;28;20472;-80
2023/03/09 15:28:34;;;;;;;665.47;629.43;;;9.60;99.90;;;;;;5015290;28;20495;-80
2023/03/09 15:31:01;;;;;;;696.77;657.27;;;9.50;99.90;;;;;;5013065;28;20474;-80
2023/03/09 15:33:28;;;;;;;745.33;701.23;;;9.50;99.90;;;;;;4997499;28;20452;-80
2023/03/09 15:35:55;;;;;;;763.03;715.70;;;9.30;99.90;;;;;;5014734;28;20509;-80
2023/03/09 15:38:23;;;;;;;771.80;723.27;;;9.30;99.90;;;;;;5012559;28;20453;-81
2023/03/09 15:40:50;;;;;;;781.47;731.60;;;9.30;99.90;;;;;;5013421;28;20457;-81
2023/03/09 15:43:17;;;;;;;798.17;745.87;;;9.10;99.90;;;;;;5014573;28;20467;-80
2023/03/09 15:45:44;;;;;;;813.10;758.70;;;8.90;99.90;;;;;;5014078;28;20487;-81
2023/03/09 15:48:11;;;;;;;821.37;764.73;;;8.90;99.90;;;;;;5013902;28;20475;-80
2023/03/09 15:50:41;;;;;;;830.37;772.07;;;8.90;99.90;;;;;;5013414;28;20488;-81
2023/03/09 15:53:08;;;;;;;838.20;776.27;;;8.80;99.90;;;;;;5013383;28;20690;-80
2023/03/09 15:55:36;;;;;;;840.57;778.67;;;8.70;99.90;;;;;;5013555;28;20993;-80
2023/03/09 15:58:04;;;;;;;850.13;784.93;;;8.60;99.90;;;;;;4995259;28;20457;-80
2023/03/09 16:00:30;;;;;;;846.47;778.87;;;8.60;99.90;;;;;;5010906;28;20463;-80
2023/03/09 16:03:04;;;;;;;863.57;791.47;;;8.60;99.90;;;;;;5013523;28;20536;-80
2023/03/09 16:05:34;;;;;;;885.23;809.17;;;8.50;99.90;;;;;;5012691;28;20473;-80
2023/03/09 16:08:00;;;;;;;891.47;812.87;;;8.70;99.90;;;;;;5016351;28;20457;-80
2023/03/09 16:10:27;;;;;;;890.63;811.10;;;8.70;99.90;;;;;;5013921;28;20453;-80
2023/03/09 16:12:55;;;;;;;891.37;810.70;;;8.80;99.90;;;;;;5014274;28;20509;-79
2023/03/09 16:15:22;;;;;;;874.10;795.73;;;8.90;99.90;;;;;;5012243;28;20862;-80
2023/03/09 16:17:49;;;;;;;875.33;795.23;;;9.20;99.90;;;;;;5013711;28;20531;-80
2023/03/09 16:20:17;;;;;;;875.53;794.07;;;9.30;99.90;;;;;;5012997;28;20449;-81
2023/03/09 16:22:47;;;;;;;855.47;774.90;;;9.50;99.90;;;;;;5013511;28;20464;-83
2023/03/09 16:27:44;;;;;;;799.03;721.97;;;9.90;99.90;;;;;;4992107;28;20470;-78
2023/03/09 16:30:17;;;;;;;794.93;719.70;;;10.00;99.90;;;;;;4976791;28;20458;-78
2023/03/09 16:32:44;;;;;;;778.27;707.50;;;10.10;99.90;;;;;;4994176;28;20508;-76
2023/03/09 16:35:12;;;;;;;766.53;697.40;;;10.20;99.90;;;;;;5000591;28;20495;-77
2023/03/09 16:37:40;;;;;;;736.03;671.50;;;10.20;99.90;;;;;;5013389;28;20834;-76
2023/03/09 16:40:07;;;;;;;724.23;662.03;;;10.20;99.90;;;;;;5013416;28;20772;-76
2023/03/09 16:42:34;;;;;;;710.73;650.97;;;10.20;99.90;;;;;;5013812;28;20980;-76
2023/03/09 16:45:19;;;;;;;698.43;641.73;;;10.20;99.90;;;;;;5022130;28;20474;-76
2023/03/09 16:47:49;;;;;;;682.27;627.87;;;10.30;99.90;;;;;;5018027;28;20473;-76
2023/03/09 16:50:19;;;;;;;672.37;618.80;;;10.20;99.90;;;;;;4992643;28;20848;-76
2023/03/09 16:52:46;;;;;;;686.10;631.10;;;10.30;99.90;;;;;;4993102;28;20892;-76
2023/03/09 16:55:15;;;;;;;688.43;634.57;;;10.30;99.90;;;;;;4993043;28;20490;-76
2023/03/09 16:57:42;;;;;;;698.30;644.40;;;10.10;99.90;;;;;;4993009;28;20458;-76
2023/03/09 17:00:13;;;;;;;700.47;646.60;;;9.90;99.90;;;;;;4992422;28;20458;-76
2023/03/09 17:02:41;;;;;;;710.27;656.03;;;10.00;99.90;;;;;;5001133;28;20453;-76
2023/03/09 17:05:14;;;;;;;722.60;668.70;;;9.90;99.90;;;;;;5012459;28;20579;-76
2023/03/09 17:07:42;;;;;;;716.60;663.80;;;9.90;99.90;;;;;;5012208;28;20976;-77
2023/03/09 17:10:17;;;;;;;697.70;646.73;;;9.80;99.90;;;;;;5012011;28;20461;-77
2023/03/09 17:12:44;;;;;;;699.80;650.00;;;9.80;99.90;;;;;;5011924;28;20452;-76
2023/03/09 17:15:14;;;;;;;692.13;644.33;;;9.60;99.90;;;;;;5012354;28;20484;-77
2023/03/09 17:17:41;;;;;;;685.10;637.97;;;9.50;99.90;;;;;;5011785;28;20460;-77
2023/03/09 17:20:15;;;;;;;679.00;632.03;;;9.40;99.90;;;;;;5011817;28;20459;-77
2023/03/09 17:22:42;;;;;;;677.97;631.27;;;9.30;99.90;;;;;;5012039;28;20457;-77
2023/03/09 17:25:17;;;;;;;660.50;615.00;;;9.30;99.90;;;;;;5011663;28;20469;-76
2023/03/09 17:27:44;;;;;;;664.43;618.20;;;9.20;99.90;;;;;;4992787;28;20496;-77
2023/03/09 17:30:14;;;;;;;667.43;621.77;;;9.20;99.90;;;;;;4992057;28;20458;-77
2023/03/09 17:32:41;;;;;;;692.73;644.07;;;8.90;99.90;;;;;;4992351;28;20481;-77
2023/03/09 17:35:10;;;;;;;713.00;661.43;;;8.90;99.90;;;;;;4992105;28;20490;-76
2023/03/09 17:37:50;;;;;;;724.27;671.57;;;8.70;99.90;;;;;;4991111;28;20560;-76
2023/03/09 17:40:17;;;;;;;741.87;686.27;;;8.60;99.90;;;;;;4992003;28;20457;-77
2023/03/09 17:42:44;;;;;;;754.47;697.27;;;8.60;99.90;;;;;;4992328;28;20532;-77
2023/03/09 17:45:16;;;;;;;759.70;700.40;;;8.50;99.90;;;;;;4992533;28;20474;-76
2023/03/09 17:47:43;;;;;;;761.77;701.87;;;8.50;99.90;;;;;;4990446;28;20548;-77
2023/03/09 17:50:15;;;;;;;779.97;718.20;;;8.50;99.90;;;;;;4992057;28;20537;-76
2023/03/09 17:52:42;;;;;;;785.43;723.37;;;8.40;99.90;;;;;;4992966;28;20487;-76
2023/03/09 17:55:12;;;;;;;768.00;706.90;;;8.60;99.90;;;;;;4992576;28;20488;-76
2023/03/09 17:57:39;;;;;;;726.17;669.47;;;8.70;99.90;;;;;;4992947;28;20482;-77
2023/03/09 18:00:10;;;;;;;689.53;634.20;;;9.00;99.90;;;;;;4974705;28;20454;-76
2023/03/09 18:02:39;;;;;;;687.07;633.27;;;9.00;99.90;;;;;;4992556;28;20455;-76
2023/03/09 18:05:06;;;;;;;684.97;632.37;;;8.90;99.90;;;;;;4992537;28;20466;-77
2023/03/09 18:10:46;;;;;;;699.03;649.53;;;9.10;99.90;;;;;;5212275;23;20484;-75
2023/03/09 18:13:13;;;;;;;653.60;608.10;;;9.30;99.90;;;;;;5011795;28;20579;-75